Terminal Aerodrome Forecast
Issued by NWS

Home | Current Version | Previous Version | Graphics & Text | Print | Product List | Glossary Off
Versions: 1 2 3 4 5 6 7 8 9 10 11 12 13 14 15 16 17 18 19 20 21 22 23 24 25 26 27 28 29 30

000
FTUS43 KGRB 291730
TAFATW
TAF
KATW 291730Z 2918/3018 27015G24KT P6SM VCSH BKN024 BKN060
      TEMPO 2920/2924 4SM SHRA OVC030
     FM300000 26010G17KT P6SM BKN080
     FM300600 26009KT P6SM SCT110
     FM301300 26011G17KT P6SM SCT080
     FM301400 26014G22KT P6SM BKN050=

USA.gov is the U.S. government's official web portal to all federal, state and local government web resources and services.